Mohawk, Arizona
Current Conditions -  °F | °C
As of 4:57 PM on Tuesday 21 Oct 2014 (Local Time) from KNYL Reporting Station
Few Clouds Few Clouds  
Wind Chill: 92°   Ceiling: Unl
Heat Index: 92°   Visibility: 10mi
Dew Point: 49°   Wind: 5mph
Humidity: 23%   Direction: 210°SSW
Pressure: 29.73"   Gusts: NA
Location:  32.73°N, 113.75°W
Report Text: KNYL 212357Z 21004KT 10SM FEW200 33/09 A2973 RMK AO2 SLP063 T03330094 10344 20300 56011
Loading
Personal Weather Stations






























Interactive Weather Map
Tropical Storm Tracking
New forecast layout! Learn more

10-Day Weather Forecast

Advertisements
Track Severe Weather on mobile